sensor_id;sensor_type;location;lat;lon;timestamp;P1;durP1;ratioP1;P2;durP2;ratioP2
47309;SDS011;33046;52.270;6.832;2023-04-01T00:00:09;2.78;;;0.93;;
47309;SDS011;33046;52.270;6.832;2023-04-01T00:02:19;3.40;;;0.50;;
47309;SDS011;33046;52.270;6.832;2023-04-01T00:04:26;3.17;;;0.70;;
47309;SDS011;33046;52.270;6.832;2023-04-01T00:06:33;2.20;;;0.50;;
47309;SDS011;33046;52.270;6.832;2023-04-01T00:08:39;5.10;;;0.70;;
47309;SDS011;33046;52.270;6.832;2023-04-01T00:10:46;1.40;;;0.50;;
47309;SDS011;33046;52.270;6.832;2023-04-01T00:12:53;2.13;;;0.65;;
47309;SDS011;33046;52.270;6.832;2023-04-01T00:15:02;2.80;;;0.77;;
47309;SDS011;33046;52.270;6.832;2023-04-01T00:17:09;2.40;;;0.60;;
47309;SDS011;33046;52.270;6.832;2023-04-01T00:19:16;4.88;;;0.93;;
47309;SDS011;33046;52.270;6.832;2023-04-01T00:21:23;1.45;;;0.55;;
47309;SDS011;33046;52.270;6.832;2023-04-01T00:23:30;2.78;;;0.75;;
47309;SDS011;33046;52.270;6.832;2023-04-01T00:25:37;2.03;;;0.80;;
47309;SDS011;33046;52.270;6.832;2023-04-01T00:27:44;1.77;;;0.60;;
47309;SDS011;33046;52.270;6.832;2023-04-01T00:29:51;3.38;;;0.68;;
47309;SDS011;33046;52.270;6.832;2023-04-01T00:31:59;2.20;;;0.88;;
47309;SDS011;33046;52.270;6.832;2023-04-01T00:34:06;3.28;;;0.85;;
47309;SDS011;33046;52.270;6.832;2023-04-01T00:36:13;3.38;;;1.25;;
47309;SDS011;33046;52.270;6.832;2023-04-01T00:38:21;3.10;;;1.40;;
47309;SDS011;33046;52.270;6.832;2023-04-01T00:40:29;1.80;;;0.60;;
47309;SDS011;33046;52.270;6.832;2023-04-01T00:42:37;2.55;;;1.10;;
47309;SDS011;33046;52.270;6.832;2023-04-01T00:44:44;3.40;;;1.27;;
47309;SDS011;33046;52.270;6.832;2023-04-01T00:46:53;1.67;;;0.57;;
47309;SDS011;33046;52.270;6.832;2023-04-01T00:49:02;1.27;;;0.50;;
47309;SDS011;33046;52.270;6.832;2023-04-01T00:51:10;1.48;;;0.60;;
47309;SDS011;33046;52.270;6.832;2023-04-01T00:53:20;2.78;;;0.70;;
47309;SDS011;33046;52.270;6.832;2023-04-01T00:55:29;2.25;;;0.88;;
47309;SDS011;33046;52.270;6.832;2023-04-01T00:57:39;1.83;;;0.73;;
47309;SDS011;33046;52.270;6.832;2023-04-01T00:59:50;2.30;;;0.95;;
47309;SDS011;33046;52.270;6.832;2023-04-01T01:01:58;1.77;;;0.63;;
47309;SDS011;33046;52.270;6.832;2023-04-01T01:04:18;1.98;;;0.70;;
47309;SDS011;33046;52.270;6.832;2023-04-01T01:06:32;3.13;;;0.90;;
47309;SDS011;33046;52.270;6.832;2023-04-01T01:08:55;3.08;;;0.70;;
47309;SDS011;33046;52.270;6.832;2023-04-01T01:11:25;1.95;;;0.50;;
47309;SDS011;33046;52.270;6.832;2023-04-01T01:13:43;2.15;;;0.60;;
47309;SDS011;33046;52.270;6.832;2023-04-01T01:15:56;1.85;;;0.50;;
47309;SDS011;33046;52.270;6.832;2023-04-01T01:18:07;3.38;;;0.90;;
47309;SDS011;33046;52.270;6.832;2023-04-01T01:20:33;1.60;;;0.65;;
47309;SDS011;33046;52.270;6.832;2023-04-01T01:25:46;3.05;;;0.82;;
47309;SDS011;33046;52.270;6.832;2023-04-01T01:28:14;7.03;;;1.52;;
47309;SDS011;33046;52.270;6.832;2023-04-01T01:30:37;3.10;;;0.90;;
47309;SDS011;33046;52.270;6.832;2023-04-01T01:32:53;1.73;;;0.88;;
47309;SDS011;33046;52.270;6.832;2023-04-01T01:35:20;1.42;;;0.60;;
47309;SDS011;33046;52.270;6.832;2023-04-01T01:37:30;1.90;;;0.60;;
47309;SDS011;33046;52.270;6.832;2023-04-01T01:39:37;3.08;;;0.63;;
47309;SDS011;33046;52.270;6.832;2023-04-01T01:41:46;0.98;;;0.50;;
47309;SDS011;33046;52.270;6.832;2023-04-01T01:43:55;2.60;;;0.70;;
47309;SDS011;33046;52.270;6.832;2023-04-01T01:46:05;1.60;;;0.68;;
47309;SDS011;33046;52.270;6.832;2023-04-01T01:48:16;0.98;;;0.60;;
47309;SDS011;33046;52.270;6.832;2023-04-01T01:50:25;3.78;;;0.93;;
47309;SDS011;33046;52.270;6.832;2023-04-01T01:52:32;1.58;;;0.55;;
47309;SDS011;33046;52.270;6.832;2023-04-01T01:54:46;0.52;;;0.40;;
47309;SDS011;33046;52.270;6.832;2023-04-01T01:56:55;1.17;;;0.85;;
47309;SDS011;33046;52.270;6.832;2023-04-01T01:59:08;1.90;;;0.70;;
47309;SDS011;33046;52.270;6.832;2023-04-01T02:01:18;1.63;;;0.75;;
47309;SDS011;33046;52.270;6.832;2023-04-01T02:03:30;1.25;;;0.73;;
47309;SDS011;33046;52.270;6.832;2023-04-01T02:05:41;1.63;;;0.70;;
47309;SDS011;33046;52.270;6.832;2023-04-01T02:07:49;1.00;;;0.60;;
47309;SDS011;33046;52.270;6.832;2023-04-01T02:10:02;1.38;;;0.73;;
47309;SDS011;33046;52.270;6.832;2023-04-01T02:12:10;1.50;;;0.50;;
47309;SDS011;33046;52.270;6.832;2023-04-01T02:14:21;1.08;;;0.70;;
47309;SDS011;33046;52.270;6.832;2023-04-01T02:16:31;0.85;;;0.70;;
47309;SDS011;33046;52.270;6.832;2023-04-01T02:18:40;2.03;;;0.77;;
47309;SDS011;33046;52.270;6.832;2023-04-01T02:20:51;1.00;;;0.63;;
47309;SDS011;33046;52.270;6.832;2023-04-01T02:22:59;0.85;;;0.57;;
47309;SDS011;33046;52.270;6.832;2023-04-01T02:25:07;0.82;;;0.65;;
47309;SDS011;33046;52.270;6.832;2023-04-01T02:27:16;0.63;;;0.60;;
47309;SDS011;33046;52.270;6.832;2023-04-01T02:29:24;1.98;;;0.60;;
47309;SDS011;33046;52.270;6.832;2023-04-01T02:31:31;2.75;;;1.20;;
47309;SDS011;33046;52.270;6.832;2023-04-01T02:33:40;3.88;;;1.33;;
47309;SDS011;33046;52.270;6.832;2023-04-01T02:35:48;1.38;;;0.80;;
47309;SDS011;33046;52.270;6.832;2023-04-01T02:37:56;1.00;;;0.70;;
47309;SDS011;33046;52.270;6.832;2023-04-01T02:40:04;1.80;;;0.77;;
47309;SDS011;33046;52.270;6.832;2023-04-01T02:42:13;1.50;;;0.80;;
47309;SDS011;33046;52.270;6.832;2023-04-01T02:44:20;0.75;;;0.68;;
47309;SDS011;33046;52.270;6.832;2023-04-01T02:46:27;1.50;;;1.20;;
47309;SDS011;33046;52.270;6.832;2023-04-01T02:48:34;2.33;;;0.80;;
47309;SDS011;33046;52.270;6.832;2023-04-01T02:50:40;1.83;;;0.85;;
47309;SDS011;33046;52.270;6.832;2023-04-01T02:52:48;1.48;;;0.90;;
47309;SDS011;33046;52.270;6.832;2023-04-01T02:54:56;2.22;;;1.00;;
47309;SDS011;33046;52.270;6.832;2023-04-01T02:57:03;1.20;;;0.90;;
47309;SDS011;33046;52.270;6.832;2023-04-01T02:59:10;1.98;;;1.60;;
47309;SDS011;33046;52.270;6.832;2023-04-01T03:01:17;1.75;;;1.30;;
47309;SDS011;33046;52.270;6.832;2023-04-01T03:03:23;3.28;;;1.60;;
47309;SDS011;33046;52.270;6.832;2023-04-01T03:05:30;1.77;;;1.27;;
47309;SDS011;33046;52.270;6.832;2023-04-01T03:07:37;3.17;;;2.17;;
47309;SDS011;33046;52.270;6.832;2023-04-01T03:09:44;2.22;;;1.58;;
47309;SDS011;33046;52.270;6.832;2023-04-01T03:11:52;1.90;;;1.60;;
47309;SDS011;33046;52.270;6.832;2023-04-01T03:13:59;2.97;;;1.45;;
47309;SDS011;33046;52.270;6.832;2023-04-01T03:16:06;2.88;;;1.88;;
47309;SDS011;33046;52.270;6.832;2023-04-01T03:18:14;2.22;;;1.70;;
47309;SDS011;33046;52.270;6.832;2023-04-01T03:20:21;4.97;;;2.72;;
47309;SDS011;33046;52.270;6.832;2023-04-01T03:22:28;3.03;;;2.13;;
47309;SDS011;33046;52.270;6.832;2023-04-01T03:24:35;3.75;;;2.50;;
47309;SDS011;33046;52.270;6.832;2023-04-01T03:26:42;2.33;;;2.08;;
47309;SDS011;33046;52.270;6.832;2023-04-01T03:28:50;3.30;;;2.45;;
47309;SDS011;33046;52.270;6.832;2023-04-01T03:30:57;4.90;;;2.72;;
47309;SDS011;33046;52.270;6.832;2023-04-01T03:33:04;3.17;;;2.88;;
47309;SDS011;33046;52.270;6.832;2023-04-01T03:35:11;4.20;;;3.13;;
47309;SDS011;33046;52.270;6.832;2023-04-01T03:37:18;3.33;;;2.80;;
47309;SDS011;33046;52.270;6.832;2023-04-01T03:39:25;2.78;;;2.50;;
47309;SDS011;33046;52.270;6.832;2023-04-01T03:41:32;3.42;;;3.13;;
47309;SDS011;33046;52.270;6.832;2023-04-01T03:43:41;3.15;;;2.70;;
47309;SDS011;33046;52.270;6.832;2023-04-01T03:45:50;3.38;;;3.05;;
47309;SDS011;33046;52.270;6.832;2023-04-01T03:47:58;5.93;;;3.63;;
47309;SDS011;33046;52.270;6.832;2023-04-01T03:50:05;3.90;;;2.88;;
47309;SDS011;33046;52.270;6.832;2023-04-01T03:52:13;4.35;;;3.30;;
47309;SDS011;33046;52.270;6.832;2023-04-01T03:54:19;3.55;;;2.65;;
47309;SDS011;33046;52.270;6.832;2023-04-01T03:56:26;3.75;;;2.83;;
47309;SDS011;33046;52.270;6.832;2023-04-01T03:58:34;3.38;;;2.95;;
47309;SDS011;33046;52.270;6.832;2023-04-01T04:00:43;3.58;;;3.28;;
47309;SDS011;33046;52.270;6.832;2023-04-01T04:02:51;3.60;;;3.28;;
47309;SDS011;33046;52.270;6.832;2023-04-01T04:05:04;3.92;;;3.38;;
47309;SDS011;33046;52.270;6.832;2023-04-01T04:07:12;5.38;;;3.17;;
47309;SDS011;33046;52.270;6.832;2023-04-01T04:09:37;3.83;;;3.53;;
47309;SDS011;33046;52.270;6.832;2023-04-01T04:11:44;4.38;;;3.88;;
47309;SDS011;33046;52.270;6.832;2023-04-01T04:13:51;4.00;;;3.45;;
47309;SDS011;33046;52.270;6.832;2023-04-01T04:15:58;4.80;;;3.72;;
47309;SDS011;33046;52.270;6.832;2023-04-01T04:18:07;4.05;;;3.63;;
47309;SDS011;33046;52.270;6.832;2023-04-01T04:20:14;4.70;;;4.20;;
47309;SDS011;33046;52.270;6.832;2023-04-01T04:22:21;4.13;;;3.72;;
47309;SDS011;33046;52.270;6.832;2023-04-01T04:24:28;4.40;;;4.00;;
47309;SDS011;33046;52.270;6.832;2023-04-01T04:26:44;4.72;;;3.63;;
47309;SDS011;33046;52.270;6.832;2023-04-01T04:28:51;4.15;;;3.85;;
47309;SDS011;33046;52.270;6.832;2023-04-01T04:30:59;4.72;;;4.32;;
47309;SDS011;33046;52.270;6.832;2023-04-01T04:33:08;4.07;;;3.67;;
47309;SDS011;33046;52.270;6.832;2023-04-01T04:35:15;4.95;;;3.30;;
47309;SDS011;33046;52.270;6.832;2023-04-01T04:37:22;3.40;;;3.10;;
47309;SDS011;33046;52.270;6.832;2023-04-01T04:39:29;4.75;;;3.33;;
47309;SDS011;33046;52.270;6.832;2023-04-01T04:41:36;5.95;;;3.55;;
47309;SDS011;33046;52.270;6.832;2023-04-01T04:43:48;3.05;;;2.75;;
47309;SDS011;33046;52.270;6.832;2023-04-01T04:45:56;3.53;;;2.83;;
47309;SDS011;33046;52.270;6.832;2023-04-01T04:48:03;3.50;;;2.10;;
47309;SDS011;33046;52.270;6.832;2023-04-01T04:50:11;4.03;;;3.20;;
47309;SDS011;33046;52.270;6.832;2023-04-01T04:52:19;2.97;;;2.67;;
47309;SDS011;33046;52.270;6.832;2023-04-01T04:54:26;3.00;;;2.70;;
47309;SDS011;33046;52.270;6.832;2023-04-01T04:56:35;2.80;;;2.30;;
47309;SDS011;33046;52.270;6.832;2023-04-01T04:58:45;2.95;;;2.50;;
47309;SDS011;33046;52.270;6.832;2023-04-01T05:00:56;2.88;;;2.38;;
47309;SDS011;33046;52.270;6.832;2023-04-01T05:03:07;3.22;;;2.92;;
47309;SDS011;33046;52.270;6.832;2023-04-01T05:05:16;3.38;;;2.47;;
47309;SDS011;33046;52.270;6.832;2023-04-01T05:07:23;3.28;;;2.97;;
47309;SDS011;33046;52.270;6.832;2023-04-01T05:09:30;5.00;;;3.05;;
47309;SDS011;33046;52.270;6.832;2023-04-01T05:11:37;3.28;;;2.85;;
47309;SDS011;33046;52.270;6.832;2023-04-01T05:13:44;3.40;;;2.67;;
47309;SDS011;33046;52.270;6.832;2023-04-01T05:15:51;2.63;;;2.35;;
47309;SDS011;33046;52.270;6.832;2023-04-01T05:17:58;3.40;;;3.10;;
47309;SDS011;33046;52.270;6.832;2023-04-01T05:20:05;2.45;;;2.10;;
47309;SDS011;33046;52.270;6.832;2023-04-01T05:22:15;3.97;;;2.47;;
47309;SDS011;33046;52.270;6.832;2023-04-01T05:24:23;2.58;;;2.30;;
47309;SDS011;33046;52.270;6.832;2023-04-01T05:26:30;3.78;;;2.67;;
47309;SDS011;33046;52.270;6.832;2023-04-01T05:28:37;2.85;;;2.17;;
47309;SDS011;33046;52.270;6.832;2023-04-01T05:30:44;3.13;;;2.83;;
47309;SDS011;33046;52.270;6.832;2023-04-01T05:33:03;2.53;;;2.33;;
47309;SDS011;33046;52.270;6.832;2023-04-01T05:35:10;2.53;;;2.25;;
47309;SDS011;33046;52.270;6.832;2023-04-01T05:37:18;2.88;;;2.10;;
47309;SDS011;33046;52.270;6.832;2023-04-01T05:39:25;2.63;;;2.13;;
47309;SDS011;33046;52.270;6.832;2023-04-01T05:41:33;2.42;;;2.22;;
47309;SDS011;33046;52.270;6.832;2023-04-01T05:43:41;2.85;;;2.38;;
47309;SDS011;33046;52.270;6.832;2023-04-01T05:46:11;2.88;;;2.58;;
47309;SDS011;33046;52.270;6.832;2023-04-01T05:48:28;2.80;;;2.40;;
47309;SDS011;33046;52.270;6.832;2023-04-01T05:50:35;3.40;;;2.92;;
47309;SDS011;33046;52.270;6.832;2023-04-01T05:52:44;2.85;;;2.55;;
47309;SDS011;33046;52.270;6.832;2023-04-01T05:54:51;2.83;;;2.47;;
47309;SDS011;33046;52.270;6.832;2023-04-01T05:56:57;3.30;;;2.75;;
47309;SDS011;33046;52.270;6.832;2023-04-01T05:59:04;2.47;;;2.22;;
47309;SDS011;33046;52.270;6.832;2023-04-01T06:01:11;2.58;;;2.20;;
47309;SDS011;33046;52.270;6.832;2023-04-01T06:03:21;2.45;;;2.25;;
47309;SDS011;33046;52.270;6.832;2023-04-01T06:05:29;4.43;;;2.67;;
47309;SDS011;33046;52.270;6.832;2023-04-01T06:07:41;3.00;;;2.42;;
47309;SDS011;33046;52.270;6.832;2023-04-01T06:09:49;2.70;;;2.22;;
47309;SDS011;33046;52.270;6.832;2023-04-01T06:12:02;4.05;;;2.53;;
47309;SDS011;33046;52.270;6.832;2023-04-01T06:14:33;3.17;;;2.50;;
47309;SDS011;33046;52.270;6.832;2023-04-01T06:16:54;3.35;;;2.40;;
47309;SDS011;33046;52.270;6.832;2023-04-01T06:19:13;3.10;;;2.63;;
47309;SDS011;33046;52.270;6.832;2023-04-01T06:21:36;4.55;;;2.25;;
47309;SDS011;33046;52.270;6.832;2023-04-01T06:24:00;2.88;;;2.45;;
47309;SDS011;33046;52.270;6.832;2023-04-01T06:26:23;3.40;;;2.83;;
47309;SDS011;33046;52.270;6.832;2023-04-01T06:28:41;2.95;;;2.50;;
47309;SDS011;33046;52.270;6.832;2023-04-01T06:31:10;2.75;;;2.50;;
47309;SDS011;33046;52.270;6.832;2023-04-01T06:33:40;3.13;;;2.80;;
47309;SDS011;33046;52.270;6.832;2023-04-01T06:36:07;3.13;;;2.63;;
47309;SDS011;33046;52.270;6.832;2023-04-01T06:38:37;2.80;;;2.60;;
47309;SDS011;33046;52.270;6.832;2023-04-01T06:41:15;3.55;;;2.22;;
47309;SDS011;33046;52.270;6.832;2023-04-01T06:43:45;3.08;;;2.80;;
47309;SDS011;33046;52.270;6.832;2023-04-01T06:46:21;3.40;;;2.63;;
47309;SDS011;33046;52.270;6.832;2023-04-01T06:49:11;3.95;;;2.95;;
47309;SDS011;33046;52.270;6.832;2023-04-01T06:51:51;3.22;;;2.78;;
47309;SDS011;33046;52.270;6.832;2023-04-01T06:54:24;7.47;;;3.15;;
47309;SDS011;33046;52.270;6.832;2023-04-01T06:56:56;5.68;;;3.15;;
47309;SDS011;33046;52.270;6.832;2023-04-01T06:59:09;4.10;;;3.10;;
47309;SDS011;33046;52.270;6.832;2023-04-01T07:01:20;3.07;;;2.50;;
47309;SDS011;33046;52.270;6.832;2023-04-01T07:03:30;3.88;;;3.20;;
47309;SDS011;33046;52.270;6.832;2023-04-01T07:05:42;3.88;;;3.30;;
47309;SDS011;33046;52.270;6.832;2023-04-01T07:07:49;4.60;;;3.17;;
47309;SDS011;33046;52.270;6.832;2023-04-01T07:09:58;4.70;;;4.20;;
47309;SDS011;33046;52.270;6.832;2023-04-01T07:12:12;4.25;;;3.95;;
47309;SDS011;33046;52.270;6.832;2023-04-01T07:14:58;5.97;;;5.53;;
47309;SDS011;33046;52.270;6.832;2023-04-01T07:17:12;6.57;;;6.18;;
47309;SDS011;33046;52.270;6.832;2023-04-01T07:19:24;5.40;;;5.00;;
47309;SDS011;33046;52.270;6.832;2023-04-01T07:21:43;4.63;;;4.22;;
47309;SDS011;33046;52.270;6.832;2023-04-01T07:24:03;4.60;;;4.22;;
47309;SDS011;33046;52.270;6.832;2023-04-01T07:26:17;4.03;;;3.72;;
47309;SDS011;33046;52.270;6.832;2023-04-01T07:28:46;3.50;;;3.20;;
47309;SDS011;33046;52.270;6.832;2023-04-01T07:31:07;4.10;;;3.67;;
47309;SDS011;33046;52.270;6.832;2023-04-01T07:33:22;4.30;;;3.95;;
47309;SDS011;33046;52.270;6.832;2023-04-01T07:35:36;3.97;;;3.67;;
47309;SDS011;33046;52.270;6.832;2023-04-01T07:37:47;4.90;;;4.07;;
47309;SDS011;33046;52.270;6.832;2023-04-01T07:40:05;4.45;;;4.05;;
47309;SDS011;33046;52.270;6.832;2023-04-01T07:42:26;4.33;;;3.93;;
47309;SDS011;33046;52.270;6.832;2023-04-01T07:44:44;4.72;;;4.13;;
47309;SDS011;33046;52.270;6.832;2023-04-01T07:47:23;3.10;;;2.80;;
47309;SDS011;33046;52.270;6.832;2023-04-01T07:49:43;3.53;;;2.78;;
47309;SDS011;33046;52.270;6.832;2023-04-01T07:52:00;3.92;;;2.58;;
47309;SDS011;33046;52.270;6.832;2023-04-01T07:54:17;2.53;;;2.33;;
47309;SDS011;33046;52.270;6.832;2023-04-01T07:58:43;2.95;;;2.15;;
47309;SDS011;33046;52.270;6.832;2023-04-01T08:01:19;5.20;;;2.72;;
47309;SDS011;33046;52.270;6.832;2023-04-01T08:03:36;2.97;;;2.78;;
47309;SDS011;33046;52.270;6.832;2023-04-01T08:05:55;4.30;;;2.70;;
47309;SDS011;33046;52.270;6.832;2023-04-01T08:08:10;2.83;;;2.53;;
47309;SDS011;33046;52.270;6.832;2023-04-01T08:11:04;3.70;;;2.00;;
47309;SDS011;33046;52.270;6.832;2023-04-01T08:13:39;3.08;;;1.75;;
47309;SDS011;33046;52.270;6.832;2023-04-01T08:16:12;2.47;;;1.63;;
47309;SDS011;33046;52.270;6.832;2023-04-01T08:18:32;1.60;;;1.35;;
47309;SDS011;33046;52.270;6.832;2023-04-01T08:20:46;3.33;;;1.80;;
47309;SDS011;33046;52.270;6.832;2023-04-01T08:22:57;1.95;;;1.50;;
47309;SDS011;33046;52.270;6.832;2023-04-01T08:25:13;2.65;;;1.70;;
47309;SDS011;33046;52.270;6.832;2023-04-01T08:27:27;2.15;;;1.70;;
47309;SDS011;33046;52.270;6.832;2023-04-01T08:29:41;1.92;;;1.73;;
47309;SDS011;33046;52.270;6.832;2023-04-01T08:31:53;2.33;;;1.67;;
47309;SDS011;33046;52.270;6.832;2023-04-01T08:34:08;1.90;;;1.50;;
47309;SDS011;33046;52.270;6.832;2023-04-01T08:36:21;1.55;;;1.45;;
47309;SDS011;33046;52.270;6.832;2023-04-01T08:38:43;1.70;;;1.38;;
47309;SDS011;33046;52.270;6.832;2023-04-01T08:41:01;1.95;;;1.50;;
47309;SDS011;33046;52.270;6.832;2023-04-01T08:49:11;1.42;;;1.30;;
47309;SDS011;33046;52.270;6.832;2023-04-01T08:54:20;1.77;;;1.27;;
47309;SDS011;33046;52.270;6.832;2023-04-01T08:56:42;1.88;;;1.35;;
47309;SDS011;33046;52.270;6.832;2023-04-01T09:01:46;1.23;;;1.02;;
47309;SDS011;33046;52.270;6.832;2023-04-01T09:04:52;1.35;;;1.00;;
47309;SDS011;33046;52.270;6.832;2023-04-01T09:07:22;1.38;;;1.20;;
47309;SDS011;33046;52.270;6.832;2023-04-01T09:15:20;1.42;;;1.27;;
47309;SDS011;33046;52.270;6.832;2023-04-01T09:17:51;1.60;;;1.45;;
47309;SDS011;33046;52.270;6.832;2023-04-01T09:20:27;1.52;;;1.35;;
47309;SDS011;33046;52.270;6.832;2023-04-01T09:22:54;1.13;;;1.00;;
47309;SDS011;33046;52.270;6.832;2023-04-01T09:25:21;1.70;;;1.27;;
47309;SDS011;33046;52.270;6.832;2023-04-01T09:27:48;1.25;;;1.10;;
47309;SDS011;33046;52.270;6.832;2023-04-01T09:30:10;1.13;;;1.00;;
47309;SDS011;33046;52.270;6.832;2023-04-01T09:32:57;1.10;;;0.90;;
47309;SDS011;33046;52.270;6.832;2023-04-01T09:35:23;1.88;;;1.02;;
47309;SDS011;33046;52.270;6.832;2023-04-01T09:37:39;1.23;;;1.00;;
47309;SDS011;33046;52.270;6.832;2023-04-01T09:42:43;2.60;;;1.27;;
47309;SDS011;33046;52.270;6.832;2023-04-01T09:47:19;2.40;;;1.75;;
47309;SDS011;33046;52.270;6.832;2023-04-01T09:49:43;2.22;;;1.88;;
47309;SDS011;33046;52.270;6.832;2023-04-01T09:52:10;2.95;;;2.15;;
47309;SDS011;33046;52.270;6.832;2023-04-01T09:54:34;3.05;;;2.22;;
47309;SDS011;33046;52.270;6.832;2023-04-01T09:57:04;1.70;;;1.35;;
47309;SDS011;33046;52.270;6.832;2023-04-01T09:59:47;1.70;;;1.42;;
47309;SDS011;33046;52.270;6.832;2023-04-01T10:07:56;2.10;;;1.70;;
47309;SDS011;33046;52.270;6.832;2023-04-01T10:13:30;1.63;;;1.20;;
47309;SDS011;33046;52.270;6.832;2023-04-01T10:16:03;1.20;;;1.00;;
47309;SDS011;33046;52.270;6.832;2023-04-01T10:18:32;1.30;;;1.00;;
47309;SDS011;33046;52.270;6.832;2023-04-01T10:21:05;1.15;;;0.93;;
47309;SDS011;33046;52.270;6.832;2023-04-01T10:26:14;1.10;;;0.95;;
47309;SDS011;33046;52.270;6.832;2023-04-01T10:29:18;1.38;;;1.10;;
47309;SDS011;33046;52.270;6.832;2023-04-01T10:37:01;1.52;;;1.00;;
47309;SDS011;33046;52.270;6.832;2023-04-01T10:39:29;1.13;;;0.95;;
47309;SDS011;33046;52.270;6.832;2023-04-01T10:42:08;2.45;;;1.10;;
47309;SDS011;33046;52.270;6.832;2023-04-01T10:45:19;1.67;;;0.70;;
47309;SDS011;33046;52.270;6.832;2023-04-01T10:47:58;1.10;;;1.00;;
47309;SDS011;33046;52.270;6.832;2023-04-01T10:50:36;0.85;;;0.73;;
47309;SDS011;33046;52.270;6.832;2023-04-01T10:53:14;0.88;;;0.77;;
47309;SDS011;33046;52.270;6.832;2023-04-01T10:56:17;0.70;;;0.70;;
47309;SDS011;33046;52.270;6.832;2023-04-01T10:59:13;0.85;;;0.70;;
47309;SDS011;33046;52.270;6.832;2023-04-01T11:02:02;1.10;;;0.88;;
47309;SDS011;33046;52.270;6.832;2023-04-01T11:15:56;1.50;;;1.20;;
47309;SDS011;33046;52.270;6.832;2023-04-01T11:21:21;3.03;;;1.30;;
47309;SDS011;33046;52.270;6.832;2023-04-01T11:23:59;1.10;;;0.98;;
47309;SDS011;33046;52.270;6.832;2023-04-01T11:26:33;1.67;;;0.90;;
47309;SDS011;33046;52.270;6.832;2023-04-01T11:29:33;1.27;;;0.90;;
47309;SDS011;33046;52.270;6.832;2023-04-01T11:32:10;0.85;;;0.70;;
47309;SDS011;33046;52.270;6.832;2023-04-01T11:34:36;1.15;;;0.65;;
47309;SDS011;33046;52.270;6.832;2023-04-01T11:36:55;0.60;;;0.50;;
47309;SDS011;33046;52.270;6.832;2023-04-01T11:39:17;1.85;;;0.63;;
47309;SDS011;33046;52.270;6.832;2023-04-01T11:41:58;0.95;;;0.80;;
47309;SDS011;33046;52.270;6.832;2023-04-01T11:44:34;1.25;;;0.75;;
47309;SDS011;33046;52.270;6.832;2023-04-01T11:46:54;0.90;;;0.85;;
47309;SDS011;33046;52.270;6.832;2023-04-01T11:49:17;1.00;;;0.70;;
47309;SDS011;33046;52.270;6.832;2023-04-01T11:51:54;0.95;;;0.80;;
47309;SDS011;33046;52.270;6.832;2023-04-01T11:54:14;1.27;;;0.90;;
47309;SDS011;33046;52.270;6.832;2023-04-01T11:56:37;1.17;;;0.88;;
47309;SDS011;33046;52.270;6.832;2023-04-01T11:59:14;1.15;;;0.73;;
47309;SDS011;33046;52.270;6.832;2023-04-01T12:01:46;0.60;;;0.60;;
47309;SDS011;33046;52.270;6.832;2023-04-01T12:04:18;0.80;;;0.60;;
47309;SDS011;33046;52.270;6.832;2023-04-01T12:06:41;0.82;;;0.65;;
47309;SDS011;33046;52.270;6.832;2023-04-01T12:08:55;2.63;;;0.70;;
47309;SDS011;33046;52.270;6.832;2023-04-01T12:11:08;0.82;;;0.70;;
47309;SDS011;33046;52.270;6.832;2023-04-01T12:13:24;1.25;;;0.80;;
47309;SDS011;33046;52.270;6.832;2023-04-01T12:15:43;1.70;;;0.63;;
47309;SDS011;33046;52.270;6.832;2023-04-01T12:18:11;1.00;;;0.70;;
47309;SDS011;33046;52.270;6.832;2023-04-01T12:20:28;2.90;;;1.30;;
47309;SDS011;33046;52.270;6.832;2023-04-01T12:22:45;1.17;;;0.77;;
47309;SDS011;33046;52.270;6.832;2023-04-01T12:24:57;4.05;;;1.00;;
47309;SDS011;33046;52.270;6.832;2023-04-01T12:27:13;1.50;;;0.98;;
47309;SDS011;33046;52.270;6.832;2023-04-01T12:29:37;1.40;;;0.90;;
47309;SDS011;33046;52.270;6.832;2023-04-01T12:31:56;1.63;;;1.20;;
47309;SDS011;33046;52.270;6.832;2023-04-01T12:34:23;0.95;;;0.85;;
47309;SDS011;33046;52.270;6.832;2023-04-01T12:36:55;1.40;;;0.98;;
47309;SDS011;33046;52.270;6.832;2023-04-01T12:39:29;1.75;;;1.15;;
47309;SDS011;33046;52.270;6.832;2023-04-01T12:44:07;1.48;;;1.17;;
47309;SDS011;33046;52.270;6.832;2023-04-01T12:46:40;2.00;;;1.10;;
47309;SDS011;33046;52.270;6.832;2023-04-01T12:49:05;1.73;;;1.05;;
47309;SDS011;33046;52.270;6.832;2023-04-01T12:51:36;1.33;;;1.23;;
47309;SDS011;33046;52.270;6.832;2023-04-01T12:54:05;1.65;;;1.48;;
47309;SDS011;33046;52.270;6.832;2023-04-01T12:56:27;2.10;;;1.48;;
47309;SDS011;33046;52.270;6.832;2023-04-01T12:58:52;1.85;;;1.52;;
47309;SDS011;33046;52.270;6.832;2023-04-01T13:01:19;1.95;;;1.30;;
47309;SDS011;33046;52.270;6.832;2023-04-01T13:04:04;1.30;;;1.20;;
47309;SDS011;33046;52.270;6.832;2023-04-01T13:06:44;1.40;;;1.10;;
47309;SDS011;33046;52.270;6.832;2023-04-01T13:09:06;1.48;;;0.90;;
47309;SDS011;33046;52.270;6.832;2023-04-01T13:11:22;1.20;;;1.00;;
47309;SDS011;33046;52.270;6.832;2023-04-01T13:13:44;1.27;;;1.05;;
47309;SDS011;33046;52.270;6.832;2023-04-01T13:16:05;2.47;;;1.10;;
47309;SDS011;33046;52.270;6.832;2023-04-01T13:18:20;1.80;;;1.40;;
47309;SDS011;33046;52.270;6.832;2023-04-01T13:20:38;1.30;;;1.10;;
47309;SDS011;33046;52.270;6.832;2023-04-01T13:22:53;1.67;;;1.13;;
47309;SDS011;33046;52.270;6.832;2023-04-01T13:25:13;1.23;;;0.80;;
47309;SDS011;33046;52.270;6.832;2023-04-01T13:27:30;0.70;;;0.70;;
47309;SDS011;33046;52.270;6.832;2023-04-01T13:29:43;0.60;;;0.60;;
47309;SDS011;33046;52.270;6.832;2023-04-01T13:32:13;1.67;;;0.70;;
47309;SDS011;33046;52.270;6.832;2023-04-01T13:34:36;0.75;;;0.60;;
47309;SDS011;33046;52.270;6.832;2023-04-01T13:36:56;0.75;;;0.65;;
47309;SDS011;33046;52.270;6.832;2023-04-01T13:42:02;1.00;;;0.80;;
47309;SDS011;33046;52.270;6.832;2023-04-01T13:44:20;1.23;;;0.90;;
47309;SDS011;33046;52.270;6.832;2023-04-01T13:46:42;1.40;;;1.30;;
47309;SDS011;33046;52.270;6.832;2023-04-01T13:51:46;1.30;;;1.20;;
47309;SDS011;33046;52.270;6.832;2023-04-01T13:54:22;1.00;;;0.90;;
47309;SDS011;33046;52.270;6.832;2023-04-01T13:56:48;1.20;;;1.00;;
47309;SDS011;33046;52.270;6.832;2023-04-01T13:59:10;1.35;;;0.98;;
47309;SDS011;33046;52.270;6.832;2023-04-01T14:01:39;0.80;;;0.80;;
47309;SDS011;33046;52.270;6.832;2023-04-01T14:03:54;1.27;;;0.95;;
47309;SDS011;33046;52.270;6.832;2023-04-01T14:06:23;0.80;;;0.70;;
47309;SDS011;33046;52.270;6.832;2023-04-01T14:08:49;1.63;;;1.20;;
47309;SDS011;33046;52.270;6.832;2023-04-01T14:11:10;1.45;;;1.10;;
47309;SDS011;33046;52.270;6.832;2023-04-01T14:13:25;0.90;;;0.90;;
47309;SDS011;33046;52.270;6.832;2023-04-01T14:15:41;2.20;;;1.60;;
47309;SDS011;33046;52.270;6.832;2023-04-01T14:17:59;1.40;;;1.20;;
47309;SDS011;33046;52.270;6.832;2023-04-01T14:20:30;1.20;;;1.10;;
47309;SDS011;33046;52.270;6.832;2023-04-01T14:22:46;1.70;;;1.20;;
47309;SDS011;33046;52.270;6.832;2023-04-01T14:25:17;1.50;;;1.20;;
47309;SDS011;33046;52.270;6.832;2023-04-01T14:27:41;1.90;;;1.42;;
47309;SDS011;33046;52.270;6.832;2023-04-01T14:29:58;2.72;;;1.50;;
47309;SDS011;33046;52.270;6.832;2023-04-01T14:32:18;1.55;;;1.25;;
47309;SDS011;33046;52.270;6.832;2023-04-01T14:34:39;2.05;;;1.63;;
47309;SDS011;33046;52.270;6.832;2023-04-01T14:37:01;1.52;;;1.42;;
47309;SDS011;33046;52.270;6.832;2023-04-01T14:39:29;2.63;;;1.80;;
47309;SDS011;33046;52.270;6.832;2023-04-01T14:44:13;1.75;;;1.63;;
47309;SDS011;33046;52.270;6.832;2023-04-01T14:46:54;1.98;;;1.73;;
47309;SDS011;33046;52.270;6.832;2023-04-01T14:49:21;2.42;;;1.83;;
47309;SDS011;33046;52.270;6.832;2023-04-01T14:51:36;1.60;;;1.50;;
47309;SDS011;33046;52.270;6.832;2023-04-01T14:53:51;2.67;;;1.52;;
47309;SDS011;33046;52.270;6.832;2023-04-01T14:56:06;3.88;;;2.17;;
47309;SDS011;33046;52.270;6.832;2023-04-01T14:58:13;1.95;;;1.48;;